sensor_id;sensor_type;location;lat;lon;timestamp;P1;durP1;ratioP1;P2;durP2;ratioP2
67508;SDS011;54354;44.724;11.284;2022-12-07T00:01:07;72.55;;;34.97;;
67508;SDS011;54354;44.724;11.284;2022-12-07T00:03:38;86.32;;;37.20;;
67508;SDS011;54354;44.724;11.284;2022-12-07T00:06:05;92.32;;;36.47;;
67508;SDS011;54354;44.724;11.284;2022-12-07T00:08:32;105.63;;;37.13;;
67508;SDS011;54354;44.724;11.284;2022-12-07T00:11:04;86.28;;;38.03;;
67508;SDS011;54354;44.724;11.284;2022-12-07T00:13:34;88.72;;;38.63;;
67508;SDS011;54354;44.724;11.284;2022-12-07T00:16:01;88.88;;;37.58;;
67508;SDS011;54354;44.724;11.284;2022-12-07T00:18:28;111.28;;;39.58;;
67508;SDS011;54354;44.724;11.284;2022-12-07T00:20:58;127.72;;;38.83;;
67508;SDS011;54354;44.724;11.284;2022-12-07T00:23:25;99.55;;;38.97;;
67508;SDS011;54354;44.724;11.284;2022-12-07T00:25:50;99.97;;;36.10;;
67508;SDS011;54354;44.724;11.284;2022-12-07T00:28:16;103.78;;;36.33;;
67508;SDS011;54354;44.724;11.284;2022-12-07T00:30:41;94.68;;;35.70;;
67508;SDS011;54354;44.724;11.284;2022-12-07T00:33:07;102.43;;;33.67;;
67508;SDS011;54354;44.724;11.284;2022-12-07T00:35:33;91.80;;;34.03;;
67508;SDS011;54354;44.724;11.284;2022-12-07T00:37:58;141.30;;;34.90;;
67508;SDS011;54354;44.724;11.284;2022-12-07T00:40:24;171.57;;;36.42;;
67508;SDS011;54354;44.724;11.284;2022-12-07T00:42:49;101.70;;;33.83;;
67508;SDS011;54354;44.724;11.284;2022-12-07T00:45:15;119.15;;;34.50;;
67508;SDS011;54354;44.724;11.284;2022-12-07T00:47:41;93.57;;;34.33;;
67508;SDS011;54354;44.724;11.284;2022-12-07T00:50:06;123.35;;;36.00;;
67508;SDS011;54354;44.724;11.284;2022-12-07T00:52:32;129.73;;;35.97;;
67508;SDS011;54354;44.724;11.284;2022-12-07T00:54:57;114.85;;;36.33;;
67508;SDS011;54354;44.724;11.284;2022-12-07T00:57:23;113.53;;;35.03;;
67508;SDS011;54354;44.724;11.284;2022-12-07T00:59:48;135.48;;;36.90;;
67508;SDS011;54354;44.724;11.284;2022-12-07T01:02:14;161.88;;;36.92;;
67508;SDS011;54354;44.724;11.284;2022-12-07T01:04:39;120.75;;;36.20;;
67508;SDS011;54354;44.724;11.284;2022-12-07T01:07:05;93.00;;;34.38;;
67508;SDS011;54354;44.724;11.284;2022-12-07T01:09:30;106.93;;;34.30;;
67508;SDS011;54354;44.724;11.284;2022-12-07T01:11:56;139.13;;;36.75;;
67508;SDS011;54354;44.724;11.284;2022-12-07T01:14:22;266.80;;;38.63;;
67508;SDS011;54354;44.724;11.284;2022-12-07T01:16:47;147.85;;;37.42;;
67508;SDS011;54354;44.724;11.284;2022-12-07T01:19:13;119.70;;;34.70;;
67508;SDS011;54354;44.724;11.284;2022-12-07T01:21:38;137.32;;;36.50;;
67508;SDS011;54354;44.724;11.284;2022-12-07T01:24:05;132.48;;;36.17;;
67508;SDS011;54354;44.724;11.284;2022-12-07T01:26:32;104.75;;;37.05;;
67508;SDS011;54354;44.724;11.284;2022-12-07T01:28:58;113.03;;;37.88;;
67508;SDS011;54354;44.724;11.284;2022-12-07T01:31:26;107.95;;;37.10;;
67508;SDS011;54354;44.724;11.284;2022-12-07T01:33:54;128.18;;;38.45;;
67508;SDS011;54354;44.724;11.284;2022-12-07T01:36:22;112.25;;;36.33;;
67508;SDS011;54354;44.724;11.284;2022-12-07T01:38:57;136.15;;;38.13;;
67508;SDS011;54354;44.724;11.284;2022-12-07T01:41:26;118.88;;;38.17;;
67508;SDS011;54354;44.724;11.284;2022-12-07T01:46:37;107.13;;;36.75;;
67508;SDS011;54354;44.724;11.284;2022-12-07T01:49:04;143.43;;;38.42;;
67508;SDS011;54354;44.724;11.284;2022-12-07T01:51:33;106.53;;;36.45;;
67508;SDS011;54354;44.724;11.284;2022-12-07T01:53:59;112.15;;;38.45;;
67508;SDS011;54354;44.724;11.284;2022-12-07T01:56:26;114.47;;;37.25;;
67508;SDS011;54354;44.724;11.284;2022-12-07T01:58:53;123.10;;;40.58;;
67508;SDS011;54354;44.724;11.284;2022-12-07T02:01:21;146.57;;;39.58;;
67508;SDS011;54354;44.724;11.284;2022-12-07T02:03:47;133.55;;;38.40;;
67508;SDS011;54354;44.724;11.284;2022-12-07T02:06:15;126.85;;;39.35;;
67508;SDS011;54354;44.724;11.284;2022-12-07T02:08:44;139.52;;;39.80;;
67508;SDS011;54354;44.724;11.284;2022-12-07T02:11:11;123.13;;;38.95;;
67508;SDS011;54354;44.724;11.284;2022-12-07T02:13:37;113.72;;;38.95;;
67508;SDS011;54354;44.724;11.284;2022-12-07T02:21:11;157.55;;;39.45;;
67508;SDS011;54354;44.724;11.284;2022-12-07T02:29:09;118.63;;;39.10;;
67508;SDS011;54354;44.724;11.284;2022-12-07T02:31:36;119.93;;;38.47;;
67508;SDS011;54354;44.724;11.284;2022-12-07T02:34:13;100.80;;;38.80;;
67508;SDS011;54354;44.724;11.284;2022-12-07T02:36:50;140.63;;;37.67;;
67508;SDS011;54354;44.724;11.284;2022-12-07T02:39:32;101.38;;;38.22;;
67508;SDS011;54354;44.724;11.284;2022-12-07T02:42:07;113.32;;;36.75;;
67508;SDS011;54354;44.724;11.284;2022-12-07T02:44:39;105.70;;;36.20;;
67508;SDS011;54354;44.724;11.284;2022-12-07T02:47:07;99.43;;;38.50;;
67508;SDS011;54354;44.724;11.284;2022-12-07T02:49:36;97.80;;;37.13;;
67508;SDS011;54354;44.724;11.284;2022-12-07T02:52:03;94.28;;;36.65;;
67508;SDS011;54354;44.724;11.284;2022-12-07T02:54:29;103.88;;;37.08;;
67508;SDS011;54354;44.724;11.284;2022-12-07T03:10:22;86.97;;;35.90;;
67508;SDS011;54354;44.724;11.284;2022-12-07T03:13:19;88.97;;;35.42;;
67508;SDS011;54354;44.724;11.284;2022-12-07T03:16:20;89.28;;;36.67;;
67508;SDS011;54354;44.724;11.284;2022-12-07T03:18:56;91.68;;;37.80;;
67508;SDS011;54354;44.724;11.284;2022-12-07T03:21:28;84.30;;;37.15;;
67508;SDS011;54354;44.724;11.284;2022-12-07T03:26:28;88.13;;;37.05;;
67508;SDS011;54354;44.724;11.284;2022-12-07T03:28:58;83.40;;;37.33;;
67508;SDS011;54354;44.724;11.284;2022-12-07T03:31:31;83.63;;;36.22;;
67508;SDS011;54354;44.724;11.284;2022-12-07T03:34:06;89.85;;;38.47;;
67508;SDS011;54354;44.724;11.284;2022-12-07T03:36:44;89.70;;;37.08;;
67508;SDS011;54354;44.724;11.284;2022-12-07T03:41:48;86.95;;;38.25;;
67508;SDS011;54354;44.724;11.284;2022-12-07T03:44:15;89.43;;;39.50;;
67508;SDS011;54354;44.724;11.284;2022-12-07T03:49:44;80.20;;;36.15;;
67508;SDS011;54354;44.724;11.284;2022-12-07T03:52:47;83.68;;;38.58;;
67508;SDS011;54354;44.724;11.284;2022-12-07T03:57:45;82.50;;;37.60;;
67508;SDS011;54354;44.724;11.284;2022-12-07T04:00:14;78.00;;;36.23;;
67508;SDS011;54354;44.724;11.284;2022-12-07T04:02:40;79.78;;;36.85;;
67508;SDS011;54354;44.724;11.284;2022-12-07T04:05:09;84.63;;;37.63;;
67508;SDS011;54354;44.724;11.284;2022-12-07T04:07:36;78.43;;;36.92;;
67508;SDS011;54354;44.724;11.284;2022-12-07T04:10:01;82.75;;;36.85;;
67508;SDS011;54354;44.724;11.284;2022-12-07T04:12:28;71.65;;;35.60;;
67508;SDS011;54354;44.724;11.284;2022-12-07T04:14:53;72.25;;;34.10;;
67508;SDS011;54354;44.724;11.284;2022-12-07T04:17:19;76.47;;;34.55;;
67508;SDS011;54354;44.724;11.284;2022-12-07T04:19:44;70.43;;;34.50;;
67508;SDS011;54354;44.724;11.284;2022-12-07T04:22:10;69.57;;;33.10;;
67508;SDS011;54354;44.724;11.284;2022-12-07T04:24:35;69.85;;;34.45;;
67508;SDS011;54354;44.724;11.284;2022-12-07T04:27:01;68.68;;;35.30;;
67508;SDS011;54354;44.724;11.284;2022-12-07T04:29:26;67.03;;;33.95;;
67508;SDS011;54354;44.724;11.284;2022-12-07T04:31:52;66.03;;;33.38;;
67508;SDS011;54354;44.724;11.284;2022-12-07T04:34:18;68.10;;;34.42;;
67508;SDS011;54354;44.724;11.284;2022-12-07T04:36:44;66.45;;;34.33;;
67508;SDS011;54354;44.724;11.284;2022-12-07T04:39:18;66.95;;;33.83;;
67508;SDS011;54354;44.724;11.284;2022-12-07T04:41:44;66.65;;;34.35;;
67508;SDS011;54354;44.724;11.284;2022-12-07T04:44:09;68.35;;;34.83;;
67508;SDS011;54354;44.724;11.284;2022-12-07T04:46:36;63.70;;;32.97;;
67508;SDS011;54354;44.724;11.284;2022-12-07T04:49:02;67.57;;;34.80;;
67508;SDS011;54354;44.724;11.284;2022-12-07T04:51:28;69.53;;;39.60;;
67508;SDS011;54354;44.724;11.284;2022-12-07T04:53:54;59.22;;;33.75;;
67508;SDS011;54354;44.724;11.284;2022-12-07T04:56:21;53.58;;;32.70;;
67508;SDS011;54354;44.724;11.284;2022-12-07T04:58:47;48.55;;;31.17;;
67508;SDS011;54354;44.724;11.284;2022-12-07T05:01:14;48.17;;;31.88;;
67508;SDS011;54354;44.724;11.284;2022-12-07T05:03:41;50.90;;;33.15;;
67508;SDS011;54354;44.724;11.284;2022-12-07T05:06:08;44.75;;;30.92;;
67508;SDS011;54354;44.724;11.284;2022-12-07T05:08:34;43.03;;;31.88;;
67508;SDS011;54354;44.724;11.284;2022-12-07T05:11:00;42.97;;;30.75;;
67508;SDS011;54354;44.724;11.284;2022-12-07T05:13:26;46.50;;;31.98;;
67508;SDS011;54354;44.724;11.284;2022-12-07T05:15:52;44.72;;;30.92;;
67508;SDS011;54354;44.724;11.284;2022-12-07T05:18:18;47.15;;;32.45;;
67508;SDS011;54354;44.724;11.284;2022-12-07T05:20:43;45.20;;;31.00;;
67508;SDS011;54354;44.724;11.284;2022-12-07T05:23:10;41.75;;;29.48;;
67508;SDS011;54354;44.724;11.284;2022-12-07T05:25:36;42.92;;;29.55;;
67508;SDS011;54354;44.724;11.284;2022-12-07T05:28:02;42.28;;;28.67;;
67508;SDS011;54354;44.724;11.284;2022-12-07T05:30:28;39.22;;;27.38;;
67508;SDS011;54354;44.724;11.284;2022-12-07T05:32:53;38.80;;;27.55;;
67508;SDS011;54354;44.724;11.284;2022-12-07T05:35:19;40.35;;;27.63;;
67508;SDS011;54354;44.724;11.284;2022-12-07T05:37:45;40.70;;;27.55;;
67508;SDS011;54354;44.724;11.284;2022-12-07T05:40:11;38.08;;;27.65;;
67508;SDS011;54354;44.724;11.284;2022-12-07T05:42:38;41.20;;;27.48;;
67508;SDS011;54354;44.724;11.284;2022-12-07T05:45:04;38.30;;;26.70;;
67508;SDS011;54354;44.724;11.284;2022-12-07T05:47:30;41.70;;;27.48;;
67508;SDS011;54354;44.724;11.284;2022-12-07T05:49:56;42.45;;;29.17;;
67508;SDS011;54354;44.724;11.284;2022-12-07T05:52:22;42.88;;;28.27;;
67508;SDS011;54354;44.724;11.284;2022-12-07T05:54:47;46.80;;;29.52;;
67508;SDS011;54354;44.724;11.284;2022-12-07T05:57:13;46.67;;;29.15;;
67508;SDS011;54354;44.724;11.284;2022-12-07T05:59:39;43.55;;;28.35;;
67508;SDS011;54354;44.724;11.284;2022-12-07T06:02:06;50.08;;;30.38;;
67508;SDS011;54354;44.724;11.284;2022-12-07T06:04:35;50.45;;;31.17;;
67508;SDS011;54354;44.724;11.284;2022-12-07T06:07:02;46.72;;;29.08;;
67508;SDS011;54354;44.724;11.284;2022-12-07T06:09:29;55.28;;;31.95;;
67508;SDS011;54354;44.724;11.284;2022-12-07T06:11:55;51.78;;;29.98;;
67508;SDS011;54354;44.724;11.284;2022-12-07T06:14:40;57.53;;;32.30;;
67508;SDS011;54354;44.724;11.284;2022-12-07T06:17:06;53.13;;;31.35;;
67508;SDS011;54354;44.724;11.284;2022-12-07T06:19:32;57.40;;;32.40;;
67508;SDS011;54354;44.724;11.284;2022-12-07T06:21:57;66.85;;;34.25;;
67508;SDS011;54354;44.724;11.284;2022-12-07T06:24:24;59.90;;;33.47;;
67508;SDS011;54354;44.724;11.284;2022-12-07T06:26:49;60.78;;;32.70;;
67508;SDS011;54354;44.724;11.284;2022-12-07T06:29:15;66.18;;;34.20;;
67508;SDS011;54354;44.724;11.284;2022-12-07T06:31:42;70.50;;;35.00;;
67508;SDS011;54354;44.724;11.284;2022-12-07T06:34:14;77.32;;;36.15;;
67508;SDS011;54354;44.724;11.284;2022-12-07T06:36:42;93.88;;;38.75;;
67508;SDS011;54354;44.724;11.284;2022-12-07T06:39:08;83.43;;;37.83;;
67508;SDS011;54354;44.724;11.284;2022-12-07T06:41:34;84.72;;;36.60;;
67508;SDS011;54354;44.724;11.284;2022-12-07T06:44:07;92.68;;;39.30;;
67508;SDS011;54354;44.724;11.284;2022-12-07T06:46:32;93.55;;;40.10;;
67508;SDS011;54354;44.724;11.284;2022-12-07T06:49:00;93.18;;;40.58;;
67508;SDS011;54354;44.724;11.284;2022-12-07T06:51:25;93.07;;;40.65;;
67508;SDS011;54354;44.724;11.284;2022-12-07T06:53:51;87.13;;;39.35;;
67508;SDS011;54354;44.724;11.284;2022-12-07T06:56:17;83.80;;;39.42;;
67508;SDS011;54354;44.724;11.284;2022-12-07T06:58:42;72.50;;;33.47;;
67508;SDS011;54354;44.724;11.284;2022-12-07T07:01:11;72.05;;;35.75;;
67508;SDS011;54354;44.724;11.284;2022-12-07T07:06:04;59.47;;;31.85;;
67508;SDS011;54354;44.724;11.284;2022-12-07T07:08:30;66.43;;;33.70;;
67508;SDS011;54354;44.724;11.284;2022-12-07T07:10:56;67.57;;;35.72;;
67508;SDS011;54354;44.724;11.284;2022-12-07T07:13:22;65.93;;;34.60;;
67508;SDS011;54354;44.724;11.284;2022-12-07T07:15:47;65.32;;;34.15;;
67508;SDS011;54354;44.724;11.284;2022-12-07T07:18:13;60.42;;;31.95;;
67508;SDS011;54354;44.724;11.284;2022-12-07T07:20:38;55.95;;;31.33;;
67508;SDS011;54354;44.724;11.284;2022-12-07T07:23:04;56.65;;;31.77;;
67508;SDS011;54354;44.724;11.284;2022-12-07T07:25:30;51.58;;;30.42;;
67508;SDS011;54354;44.724;11.284;2022-12-07T07:27:56;54.15;;;31.25;;
67508;SDS011;54354;44.724;11.284;2022-12-07T07:30:22;60.97;;;33.15;;
67508;SDS011;54354;44.724;11.284;2022-12-07T07:32:48;60.20;;;32.70;;
67508;SDS011;54354;44.724;11.284;2022-12-07T07:35:14;62.78;;;31.88;;
67508;SDS011;54354;44.724;11.284;2022-12-07T07:37:40;63.42;;;32.85;;
67508;SDS011;54354;44.724;11.284;2022-12-07T07:40:06;66.10;;;33.30;;
67508;SDS011;54354;44.724;11.284;2022-12-07T07:42:32;59.70;;;32.00;;
67508;SDS011;54354;44.724;11.284;2022-12-07T07:44:58;70.75;;;33.38;;
67508;SDS011;54354;44.724;11.284;2022-12-07T07:47:23;68.97;;;34.00;;
67508;SDS011;54354;44.724;11.284;2022-12-07T07:49:49;73.55;;;34.15;;
67508;SDS011;54354;44.724;11.284;2022-12-07T07:52:15;76.72;;;33.63;;
67508;SDS011;54354;44.724;11.284;2022-12-07T07:54:40;77.65;;;35.40;;
67508;SDS011;54354;44.724;11.284;2022-12-07T07:57:06;77.63;;;35.28;;
67508;SDS011;54354;44.724;11.284;2022-12-07T07:59:31;76.40;;;35.85;;
67508;SDS011;54354;44.724;11.284;2022-12-07T08:01:57;69.35;;;33.88;;
67508;SDS011;54354;44.724;11.284;2022-12-07T08:04:22;79.25;;;34.03;;
67508;SDS011;54354;44.724;11.284;2022-12-07T08:06:48;65.63;;;30.70;;
67508;SDS011;54354;44.724;11.284;2022-12-07T08:09:13;65.13;;;32.50;;
67508;SDS011;54354;44.724;11.284;2022-12-07T08:11:39;65.47;;;30.98;;
67508;SDS011;54354;44.724;11.284;2022-12-07T08:14:04;61.85;;;30.80;;
67508;SDS011;54354;44.724;11.284;2022-12-07T08:16:30;59.15;;;30.38;;
67508;SDS011;54354;44.724;11.284;2022-12-07T08:18:57;61.05;;;30.02;;
67508;SDS011;54354;44.724;11.284;2022-12-07T08:21:22;62.25;;;32.00;;
67508;SDS011;54354;44.724;11.284;2022-12-07T08:23:48;61.67;;;31.35;;
67508;SDS011;54354;44.724;11.284;2022-12-07T08:26:15;60.15;;;31.00;;
67508;SDS011;54354;44.724;11.284;2022-12-07T08:28:41;68.25;;;31.17;;
67508;SDS011;54354;44.724;11.284;2022-12-07T08:31:15;62.83;;;31.73;;
67508;SDS011;54354;44.724;11.284;2022-12-07T08:33:44;61.95;;;30.27;;
67508;SDS011;54354;44.724;11.284;2022-12-07T08:36:11;60.38;;;29.58;;
67508;SDS011;54354;44.724;11.284;2022-12-07T08:38:38;66.20;;;30.63;;
67508;SDS011;54354;44.724;11.284;2022-12-07T08:41:05;63.08;;;31.98;;
67508;SDS011;54354;44.724;11.284;2022-12-07T08:43:31;66.32;;;33.03;;
67508;SDS011;54354;44.724;11.284;2022-12-07T08:49:04;71.43;;;32.80;;
67508;SDS011;54354;44.724;11.284;2022-12-07T08:51:43;69.55;;;34.75;;
67508;SDS011;54354;44.724;11.284;2022-12-07T08:54:10;72.75;;;35.72;;
67508;SDS011;54354;44.724;11.284;2022-12-07T08:56:39;76.82;;;36.78;;
67508;SDS011;54354;44.724;11.284;2022-12-07T08:59:05;67.78;;;34.03;;
67508;SDS011;54354;44.724;11.284;2022-12-07T09:01:32;73.80;;;35.58;;
67508;SDS011;54354;44.724;11.284;2022-12-07T09:03:58;83.03;;;37.45;;
67508;SDS011;54354;44.724;11.284;2022-12-07T09:06:23;69.97;;;33.92;;
67508;SDS011;54354;44.724;11.284;2022-12-07T09:08:51;75.05;;;35.90;;
67508;SDS011;54354;44.724;11.284;2022-12-07T09:11:21;76.35;;;36.15;;
67508;SDS011;54354;44.724;11.284;2022-12-07T09:13:47;72.00;;;34.85;;
67508;SDS011;54354;44.724;11.284;2022-12-07T09:16:13;67.20;;;33.45;;
67508;SDS011;54354;44.724;11.284;2022-12-07T09:18:38;67.10;;;34.50;;
67508;SDS011;54354;44.724;11.284;2022-12-07T09:21:04;67.20;;;33.00;;
67508;SDS011;54354;44.724;11.284;2022-12-07T09:23:30;63.72;;;34.17;;
67508;SDS011;54354;44.724;11.284;2022-12-07T09:25:58;63.80;;;33.40;;
67508;SDS011;54354;44.724;11.284;2022-12-07T09:28:28;58.28;;;32.75;;
67508;SDS011;54354;44.724;11.284;2022-12-07T09:30:53;61.35;;;33.05;;
67508;SDS011;54354;44.724;11.284;2022-12-07T09:33:19;58.58;;;32.20;;
67508;SDS011;54354;44.724;11.284;2022-12-07T09:35:45;53.85;;;31.92;;
67508;SDS011;54354;44.724;11.284;2022-12-07T09:38:14;65.97;;;33.87;;
67508;SDS011;54354;44.724;11.284;2022-12-07T09:40:40;54.80;;;31.48;;
67508;SDS011;54354;44.724;11.284;2022-12-07T09:43:21;51.70;;;31.33;;
67508;SDS011;54354;44.724;11.284;2022-12-07T09:48:20;46.80;;;28.55;;
67508;SDS011;54354;44.724;11.284;2022-12-07T09:50:57;48.47;;;30.80;;
67508;SDS011;54354;44.724;11.284;2022-12-07T09:53:26;45.50;;;30.40;;
67508;SDS011;54354;44.724;11.284;2022-12-07T09:55:54;44.05;;;29.38;;
67508;SDS011;54354;44.724;11.284;2022-12-07T09:58:24;45.40;;;29.95;;
67508;SDS011;54354;44.724;11.284;2022-12-07T10:00:55;41.92;;;28.42;;
67508;SDS011;54354;44.724;11.284;2022-12-07T10:03:25;45.22;;;29.95;;
67508;SDS011;54354;44.724;11.284;2022-12-07T10:05:52;46.50;;;29.50;;
67508;SDS011;54354;44.724;11.284;2022-12-07T10:08:18;46.95;;;29.75;;
67508;SDS011;54354;44.724;11.284;2022-12-07T10:10:44;43.03;;;28.80;;
67508;SDS011;54354;44.724;11.284;2022-12-07T10:13:15;45.30;;;28.58;;
67508;SDS011;54354;44.724;11.284;2022-12-07T10:15:49;40.38;;;27.70;;
67508;SDS011;54354;44.724;11.284;2022-12-07T10:23:27;44.60;;;29.10;;
67508;SDS011;54354;44.724;11.284;2022-12-07T10:25:52;46.00;;;28.92;;
67508;SDS011;54354;44.724;11.284;2022-12-07T10:28:20;42.88;;;28.40;;
67508;SDS011;54354;44.724;11.284;2022-12-07T10:33:28;38.85;;;27.23;;
67508;SDS011;54354;44.724;11.284;2022-12-07T10:35:57;39.30;;;27.58;;
67508;SDS011;54354;44.724;11.284;2022-12-07T10:38:27;44.90;;;30.00;;
67508;SDS011;54354;44.724;11.284;2022-12-07T10:41:03;42.90;;;28.33;;
67508;SDS011;54354;44.724;11.284;2022-12-07T10:43:30;43.08;;;27.77;;
67508;SDS011;54354;44.724;11.284;2022-12-07T10:54:26;39.70;;;26.50;;
67508;SDS011;54354;44.724;11.284;2022-12-07T11:00:04;37.33;;;25.10;;
67508;SDS011;54354;44.724;11.284;2022-12-07T11:03:21;41.22;;;25.95;;
67508;SDS011;54354;44.724;11.284;2022-12-07T11:11:39;35.33;;;24.80;;
67508;SDS011;54354;44.724;11.284;2022-12-07T11:23:24;35.13;;;24.17;;
67508;SDS011;54354;44.724;11.284;2022-12-07T11:32:22;33.60;;;24.55;;
67508;SDS011;54354;44.724;11.284;2022-12-07T11:38:00;32.17;;;23.35;;
67508;SDS011;54354;44.724;11.284;2022-12-07T11:40:34;29.23;;;22.35;;
67508;SDS011;54354;44.724;11.284;2022-12-07T11:45:47;32.80;;;23.85;;
67508;SDS011;54354;44.724;11.284;2022-12-07T11:50:56;32.40;;;23.80;;
67508;SDS011;54354;44.724;11.284;2022-12-07T11:53:28;30.15;;;23.05;;
67508;SDS011;54354;44.724;11.284;2022-12-07T11:56:12;32.05;;;23.80;;
67508;SDS011;54354;44.724;11.284;2022-12-07T11:58:42;34.13;;;23.48;;
67508;SDS011;54354;44.724;11.284;2022-12-07T12:03:36;28.90;;;22.75;;
67508;SDS011;54354;44.724;11.284;2022-12-07T12:06:05;31.90;;;22.67;;
67508;SDS011;54354;44.724;11.284;2022-12-07T12:08:39;31.58;;;22.73;;
67508;SDS011;54354;44.724;11.284;2022-12-07T12:13:58;26.90;;;20.90;;
67508;SDS011;54354;44.724;11.284;2022-12-07T12:19:45;26.70;;;19.67;;
67508;SDS011;54354;44.724;11.284;2022-12-07T12:22:45;24.63;;;19.40;;
67508;SDS011;54354;44.724;11.284;2022-12-07T12:25:19;23.73;;;18.85;;
67508;SDS011;54354;44.724;11.284;2022-12-07T12:27:48;25.70;;;20.35;;
67508;SDS011;54354;44.724;11.284;2022-12-07T12:30:35;23.70;;;19.63;;
67508;SDS011;54354;44.724;11.284;2022-12-07T12:33:04;22.58;;;17.85;;
67508;SDS011;54354;44.724;11.284;2022-12-07T12:38:51;23.52;;;18.98;;
67508;SDS011;54354;44.724;11.284;2022-12-07T12:44:00;23.33;;;19.20;;
67508;SDS011;54354;44.724;11.284;2022-12-07T12:48:56;24.85;;;20.08;;
67508;SDS011;54354;44.724;11.284;2022-12-07T12:51:45;27.35;;;18.98;;
67508;SDS011;54354;44.724;11.284;2022-12-07T12:59:41;29.83;;;21.73;;
67508;SDS011;54354;44.724;11.284;2022-12-07T13:02:30;31.35;;;23.95;;
67508;SDS011;54354;44.724;11.284;2022-12-07T13:13:03;31.50;;;24.85;;
67508;SDS011;54354;44.724;11.284;2022-12-07T13:15:45;39.38;;;29.13;;
67508;SDS011;54354;44.724;11.284;2022-12-07T13:18:40;38.65;;;29.60;;
67508;SDS011;54354;44.724;11.284;2022-12-07T13:26:19;39.45;;;30.35;;
67508;SDS011;54354;44.724;11.284;2022-12-07T13:42:28;30.52;;;23.65;;
67508;SDS011;54354;44.724;11.284;2022-12-07T13:44:56;27.55;;;21.92;;
67508;SDS011;54354;44.724;11.284;2022-12-07T13:49:55;30.38;;;22.98;;
67508;SDS011;54354;44.724;11.284;2022-12-07T13:57:27;29.20;;;24.02;;
67508;SDS011;54354;44.724;11.284;2022-12-07T13:59:59;24.13;;;20.17;;
67508;SDS011;54354;44.724;11.284;2022-12-07T14:02:27;24.83;;;20.35;;
67508;SDS011;54354;44.724;11.284;2022-12-07T14:05:12;25.67;;;20.33;;
67508;SDS011;54354;44.724;11.284;2022-12-07T14:08:00;28.27;;;20.27;;
67508;SDS011;54354;44.724;11.284;2022-12-07T14:12:59;26.20;;;20.23;;
67508;SDS011;54354;44.724;11.284;2022-12-07T14:15:28;25.17;;;19.95;;
67508;SDS011;54354;44.724;11.284;2022-12-07T14:17:56;26.15;;;20.48;;
67508;SDS011;54354;44.724;11.284;2022-12-07T14:23:00;27.10;;;21.00;;
67508;SDS011;54354;44.724;11.284;2022-12-07T14:25:44;27.23;;;20.33;;
67508;SDS011;54354;44.724;11.284;2022-12-07T14:28:33;26.63;;;22.13;;
67508;SDS011;54354;44.724;11.284;2022-12-07T14:30:58;27.92;;;21.52;;
67508;SDS011;54354;44.724;11.284;2022-12-07T14:33:25;29.20;;;21.17;;
67508;SDS011;54354;44.724;11.284;2022-12-07T14:35:51;32.17;;;23.15;;
67508;SDS011;54354;44.724;11.284;2022-12-07T14:38:23;32.17;;;23.67;;
67508;SDS011;54354;44.724;11.284;2022-12-07T14:40:50;28.13;;;21.60;;
67508;SDS011;54354;44.724;11.284;2022-12-07T14:43:17;31.63;;;23.73;;
67508;SDS011;54354;44.724;11.284;2022-12-07T14:45:44;34.17;;;23.90;;
67508;SDS011;54354;44.724;11.284;2022-12-07T14:48:10;32.30;;;23.95;;
67508;SDS011;54354;44.724;11.284;2022-12-07T14:50:38;36.72;;;23.42;;
67508;SDS011;54354;44.724;11.284;2022-12-07T14:53:16;37.90;;;24.90;;
67508;SDS011;54354;44.724;11.284;2022-12-07T14:55:43;32.00;;;24.23;;
67508;SDS011;54354;44.724;11.284;2022-12-07T14:58:13;33.78;;;24.08;;
67508;SDS011;54354;44.724;11.284;2022-12-07T15:00:40;34.17;;;26.00;;
67508;SDS011;54354;44.724;11.284;2022-12-07T15:03:06;37.88;;;26.70;;
67508;SDS011;54354;44.724;11.284;2022-12-07T15:05:32;35.17;;;25.55;;
67508;SDS011;54354;44.724;11.284;2022-12-07T15:07:58;36.10;;;26.23;;
67508;SDS011;54354;44.724;11.284;2022-12-07T15:10:25;41.08;;;28.13;;
67508;SDS011;54354;44.724;11.284;2022-12-07T15:12:55;43.00;;;29.13;;
67508;SDS011;54354;44.724;11.284;2022-12-07T15:15:41;40.40;;;27.42;;
67508;SDS011;54354;44.724;11.284;2022-12-07T15:18:07;39.22;;;29.05;;
67508;SDS011;54354;44.724;11.284;2022-12-07T15:20:32;37.47;;;26.55;;
67508;SDS011;54354;44.724;11.284;2022-12-07T15:22:58;40.15;;;27.88;;
67508;SDS011;54354;44.724;11.284;2022-12-07T15:25:23;39.50;;;27.83;;
67508;SDS011;54354;44.724;11.284;2022-12-07T15:27:49;39.35;;;27.20;;
67508;SDS011;54354;44.724;11.284;2022-12-07T15:30:15;44.28;;;29.15;;
67508;SDS011;54354;44.724;11.284;2022-12-07T15:32:40;41.33;;;28.00;;
67508;SDS011;54354;44.724;11.284;2022-12-07T15:35:06;38.55;;;27.80;;
67508;SDS011;54354;44.724;11.284;2022-12-07T15:37:32;41.25;;;29.17;;
67508;SDS011;54354;44.724;11.284;2022-12-07T15:39:59;46.20;;;31.27;;
67508;SDS011;54354;44.724;11.284;2022-12-07T15:42:33;43.67;;;29.73;;
67508;SDS011;54354;44.724;11.284;2022-12-07T15:44:59;45.30;;;32.53;;
67508;SDS011;54354;44.724;11.284;2022-12-07T15:47:31;46.38;;;31.50;;
67508;SDS011;54354;44.724;11.284;2022-12-07T15:50:08;48.28;;;31.45;;
67508;SDS011;54354;44.724;11.284;2022-12-07T15:52:38;40.25;;;28.42;;
67508;SDS011;54354;44.724;11.284;2022-12-07T15:55:04;45.40;;;30.13;;
67508;SDS011;54354;44.724;11.284;2022-12-07T15:57:31;45.20;;;31.20;;
67508;SDS011;54354;44.724;11.284;2022-12-07T15:59:57;49.80;;;33.45;;
67508;SDS011;54354;44.724;11.284;2022-12-07T16:02:23;48.58;;;33.35;;
67508;SDS011;54354;44.724;11.284;2022-12-07T16:04:52;47.90;;;32.38;;
67508;SDS011;54354;44.724;11.284;2022-12-07T16:07:21;43.72;;;29.80;;
67508;SDS011;54354;44.724;11.284;2022-12-07T16:09:47;42.92;;;31.20;;
67508;SDS011;54354;44.724;11.284;2022-12-07T16:12:17;46.42;;;33.17;;
67508;SDS011;54354;44.724;11.284;2022-12-07T16:14:44;57.95;;;37.80;;
67508;SDS011;54354;44.724;11.284;2022-12-07T16:17:11;56.70;;;39.38;;
67508;SDS011;54354;44.724;11.284;2022-12-07T16:19:38;60.13;;;41.55;;
67508;SDS011;54354;44.724;11.284;2022-12-07T16:22:04;58.00;;;38.95;;
67508;SDS011;54354;44.724;11.284;2022-12-07T16:24:30;63.28;;;43.03;;
67508;SDS011;54354;44.724;11.284;2022-12-07T16:26:56;58.63;;;39.60;;
67508;SDS011;54354;44.724;11.284;2022-12-07T16:29:22;53.55;;;37.78;;
67508;SDS011;54354;44.724;11.284;2022-12-07T16:31:48;58.67;;;37.65;;
67508;SDS011;54354;44.724;11.284;2022-12-07T16:34:22;57.92;;;37.33;;
67508;SDS011;54354;44.724;11.284;2022-12-07T16:36:48;66.40;;;39.95;;
67508;SDS011;54354;44.724;11.284;2022-12-07T16:39:14;76.18;;;44.20;;
67508;SDS011;54354;44.724;11.284;2022-12-07T16:41:39;94.93;;;47.90;;
67508;SDS011;54354;44.724;11.284;2022-12-07T16:44:05;96.07;;;47.58;;
67508;SDS011;54354;44.724;11.284;2022-12-07T16:46:32;101.82;;;51.60;;
67508;SDS011;54354;44.724;11.284;2022-12-07T16:49:01;100.32;;;51.05;;
67508;SDS011;54354;44.724;11.284;2022-12-07T16:51:27;98.38;;;47.80;;